Time;durP1;ratioP1;P1;durP2;ratioP2;P2;SDS_P1;SDS_P2;PMS_P1;PMS_P2;Temp;Humidity;BMP_temperature;BMP_pressure;BME280_temperature;BME280_humidity;BME280_pressure;Samples;Min_cycle;Max_cycle;Signal;HPM_P1;HPM_P2
2024/01/11 00:03:07;;;;;;;28.20;13.33;;;;;;;;;;5173952;22;20674;-35
2024/01/11 00:08:42;;;;;;;26.10;15.20;;;;;;;;;;5052806;28;20285;-26
2024/01/11 00:11:15;;;;;;;30.90;14.87;;;;;;;;;;5053851;28;20217;-27
2024/01/11 00:14:00;;;;;;;21.13;10.87;;;;;;;;;;5058867;28;20201;-28
2024/01/11 00:16:33;;;;;;;23.50;11.20;;;;;;;;;;5041464;28;20311;-26
2024/01/11 00:19:05;;;;;;;25.23;13.67;;;;;;;;;;5596203;22;21980;-35
2024/01/11 00:21:42;;;;;;;27.60;13.90;;;;;;;;;;5064356;28;20213;-32
2024/01/11 00:24:17;;;;;;;26.10;13.50;;;;;;;;;;5070168;28;20216;-32
2024/01/11 00:32:03;;;;;;;27.17;13.77;;;;;;;;;;5771202;22;20234;-37
2024/01/11 00:34:58;;;;;;;23.73;14.17;;;;;;;;;;5040558;28;20220;-32
2024/01/11 00:37:41;;;;;;;28.27;13.97;;;;;;;;;;5050446;28;20225;-36
2024/01/11 00:40:21;;;;;;;24.90;12.60;;;;;;;;;;5041365;28;20536;-32
2024/01/11 00:42:53;;;;;;;33.80;14.83;;;;;;;;;;5032487;28;20202;-31
2024/01/11 00:45:25;;;;;;;27.03;13.97;;;;;;;;;;5039513;28;20228;-38
2024/01/11 00:47:57;;;;;;;26.23;12.87;;;;;;;;;;5038894;28;20233;-33
2024/01/11 00:50:30;;;;;;;29.87;14.13;;;;;;;;;;5040999;28;20206;-31
2024/01/11 00:53:04;;;;;;;26.37;12.27;;;;;;;;;;5041263;28;20627;-34
2024/01/11 00:55:33;;;;;;;28.67;13.17;;;;;;;;;;5048896;28;20329;-37
2024/01/11 00:58:07;;;;;;;23.67;13.00;;;;;;;;;;5040716;28;20222;-33
2024/01/11 01:00:39;;;;;;;28.43;13.80;;;;;;;;;;5032832;28;20236;-34
2024/01/11 01:03:24;;;;;;;26.70;14.80;;;;;;;;;;5040789;28;20202;-34
2024/01/11 01:05:58;;;;;;;27.57;13.53;;;;;;;;;;5043401;28;20308;-34
2024/01/11 01:08:47;;;;;;;34.03;13.53;;;;;;;;;;5044482;28;20206;-34
2024/01/11 01:11:21;;;;;;;26.37;12.87;;;;;;;;;;5043828;28;20206;-36
2024/01/11 01:13:58;;;;;;;26.60;12.00;;;;;;;;;;5043019;28;20206;-39
2024/01/11 01:16:33;;;;;;;26.50;14.17;;;;;;;;;;5035558;28;20652;-33
2024/01/11 01:19:02;;;;;;;29.40;14.17;;;;;;;;;;5042564;28;20230;-34
2024/01/11 01:21:38;;;;;;;24.10;11.93;;;;;;;;;;5041344;28;20202;-36
2024/01/11 01:24:10;;;;;;;26.17;13.10;;;;;;;;;;5047096;28;20201;-34
2024/01/11 01:26:40;;;;;;;30.77;14.23;;;;;;;;;;5049167;28;20209;-31
2024/01/11 01:29:16;;;;;;;23.73;12.13;;;;;;;;;;5034541;28;20209;-34
2024/01/11 01:31:49;;;;;;;21.23;12.83;;;;;;;;;;5031635;28;20194;-37
2024/01/11 01:34:17;;;;;;;24.90;12.27;;;;;;;;;;5031367;28;20264;-35
2024/01/11 01:36:52;;;;;;;28.13;14.97;;;;;;;;;;5050741;28;20202;-33
2024/01/11 01:39:23;;;;;;;29.77;15.10;;;;;;;;;;5035353;28;20202;-30
2024/01/11 01:41:55;;;;;;;21.13;12.50;;;;;;;;;;5041714;28;20205;-36
2024/01/11 01:44:26;;;;;;;27.00;12.97;;;;;;;;;;5043833;28;20225;-35
2024/01/11 01:46:59;;;;;;;23.30;12.50;;;;;;;;;;5039952;28;20203;-32
2024/01/11 01:49:32;;;;;;;23.40;13.27;;;;;;;;;;5034332;28;20300;-36
2024/01/11 01:52:07;;;;;;;23.47;12.23;;;;;;;;;;5037181;28;20241;-37
2024/01/11 01:54:36;;;;;;;28.40;11.93;;;;;;;;;;5050222;28;20225;-33
2024/01/11 01:57:07;;;;;;;26.03;12.90;;;;;;;;;;5044284;28;20211;-32
2024/01/11 01:59:37;;;;;;;24.13;12.13;;;;;;;;;;5045477;28;20301;-36
2024/01/11 02:02:10;;;;;;;25.30;14.07;;;;;;;;;;5033909;28;20212;-34
2024/01/11 02:04:44;;;;;;;25.23;13.63;;;;;;;;;;5044000;28;20234;-39
2024/01/11 02:07:14;;;;;;;25.77;13.43;;;;;;;;;;5042978;28;20500;-34
2024/01/11 02:09:45;;;;;;;24.07;13.17;;;;;;;;;;5034479;28;20190;-34
2024/01/11 02:12:16;;;;;;;25.57;13.37;;;;;;;;;;5047090;28;20707;-33
2024/01/11 02:14:48;;;;;;;22.83;11.83;;;;;;;;;;5041675;28;20229;-34
2024/01/11 02:17:19;;;;;;;30.80;14.93;;;;;;;;;;5051245;28;20231;-33
2024/01/11 02:20:00;;;;;;;26.13;12.97;;;;;;;;;;5043288;28;20532;-33
2024/01/11 02:22:38;;;;;;;23.40;12.20;;;;;;;;;;5036807;28;20606;-39
2024/01/11 02:25:12;;;;;;;23.90;12.53;;;;;;;;;;5040777;28;20226;-37
2024/01/11 02:27:52;;;;;;;25.67;12.23;;;;;;;;;;5051771;28;20245;-35
2024/01/11 02:33:20;;;;;;;26.17;12.67;;;;;;;;;;5042460;28;20217;-33
2024/01/11 02:35:58;;;;;;;26.63;13.20;;;;;;;;;;5039679;28;20336;-35
2024/01/11 02:38:27;;;;;;;19.83;10.13;;;;;;;;;;5053828;28;20224;-35
2024/01/11 02:40:58;;;;;;;24.93;12.10;;;;;;;;;;5035159;28;20214;-34
2024/01/11 02:43:27;;;;;;;24.27;11.50;;;;;;;;;;5040860;28;20230;-32
2024/01/11 02:45:59;;;;;;;23.33;12.80;;;;;;;;;;5050117;22;20649;-33
2024/01/11 02:48:38;;;;;;;23.27;12.27;;;;;;;;;;5049445;28;20198;-31
2024/01/11 02:51:10;;;;;;;25.10;14.10;;;;;;;;;;5048534;28;20208;-36
2024/01/11 02:53:39;;;;;;;23.40;12.13;;;;;;;;;;5054164;28;20260;-35
2024/01/11 02:56:15;;;;;;;21.63;11.63;;;;;;;;;;5052740;28;20228;-33
2024/01/11 02:58:52;;;;;;;23.47;12.83;;;;;;;;;;5040363;28;20264;-32
2024/01/11 03:01:24;;;;;;;24.37;13.30;;;;;;;;;;5050682;28;20209;-33
2024/01/11 03:04:03;;;;;;;28.57;12.30;;;;;;;;;;5034851;28;20194;-35
2024/01/11 03:06:38;;;;;;;27.03;14.00;;;;;;;;;;5043395;28;20232;-33
2024/01/11 03:09:07;;;;;;;30.00;14.67;;;;;;;;;;5053990;28;20235;-37
2024/01/11 03:11:51;;;;;;;25.43;13.67;;;;;;;;;;5053469;28;20296;-32
2024/01/11 03:14:28;;;;;;;27.17;14.97;;;;;;;;;;5042968;28;20218;-37
2024/01/11 03:17:00;;;;;;;28.67;13.03;;;;;;;;;;5046737;28;20209;-36
2024/01/11 03:19:31;;;;;;;26.13;12.73;;;;;;;;;;5044444;28;20222;-36
2024/01/11 03:22:03;;;;;;;28.03;13.13;;;;;;;;;;5052773;28;20194;-33
2024/01/11 03:24:33;;;;;;;22.73;12.47;;;;;;;;;;5052142;28;20312;-32
2024/01/11 03:27:05;;;;;;;23.33;12.10;;;;;;;;;;5037188;28;20206;-36
2024/01/11 03:29:46;;;;;;;24.40;11.77;;;;;;;;;;5044969;28;20206;-33
2024/01/11 03:32:18;;;;;;;23.63;10.90;;;;;;;;;;5053770;28;20280;-37
2024/01/11 03:34:51;;;;;;;23.80;12.57;;;;;;;;;;5044206;28;20288;-35
2024/01/11 03:37:21;;;;;;;26.07;12.07;;;;;;;;;;5045823;28;20207;-32
2024/01/11 03:39:52;;;;;;;23.73;12.37;;;;;;;;;;5045132;28;20213;-32
2024/01/11 03:42:28;;;;;;;26.53;12.90;;;;;;;;;;5046393;28;20203;-34
2024/01/11 03:45:00;;;;;;;24.70;13.33;;;;;;;;;;5043583;28;20747;-37
2024/01/11 03:47:30;;;;;;;26.43;12.60;;;;;;;;;;5042196;28;20539;-35
2024/01/11 03:50:02;;;;;;;22.50;13.53;;;;;;;;;;5050909;28;20206;-34
2024/01/11 03:52:34;;;;;;;22.57;11.97;;;;;;;;;;5036322;28;20202;-33
2024/01/11 03:55:09;;;;;;;25.30;11.80;;;;;;;;;;5042336;28;20223;-34
2024/01/11 03:57:42;;;;;;;18.83;10.53;;;;;;;;;;5039920;28;20226;-32
2024/01/11 04:00:10;;;;;;;21.53;12.50;;;;;;;;;;5045223;28;20225;-34
2024/01/11 04:02:42;;;;;;;25.60;13.63;;;;;;;;;;5034761;28;20281;-33
2024/01/11 04:07:48;;;;;;;23.90;13.33;;;;;;;;;;5300016;22;20357;-35
2024/01/11 04:10:20;;;;;;;22.97;11.80;;;;;;;;;;5060356;28;20682;-34
2024/01/11 04:12:56;;;;;;;29.37;13.60;;;;;;;;;;5073318;28;20746;-30
2024/01/11 04:15:25;;;;;;;28.63;13.60;;;;;;;;;;5052481;28;20759;-34
2024/01/11 04:18:00;;;;;;;28.63;12.30;;;;;;;;;;5050167;28;20540;-33
2024/01/11 04:23:06;;;;;;;24.75;12.90;;;;;;;;;;5628414;22;20235;-31
2024/01/11 04:25:37;;;;;;;20.80;11.43;;;;;;;;;;5043999;28;20266;-30
2024/01/11 04:28:11;;;;;;;25.87;12.77;;;;;;;;;;5045811;28;20202;-35
2024/01/11 04:30:43;;;;;;;29.97;14.07;;;;;;;;;;5042069;28;20210;-32
2024/01/11 04:33:13;;;;;;;27.80;12.70;;;;;;;;;;5037052;28;20213;-33
2024/01/11 04:35:41;;;;;;;25.73;13.90;;;;;;;;;;5034475;28;20226;-30
2024/01/11 04:38:13;;;;;;;23.20;11.93;;;;;;;;;;5036124;28;20288;-30
2024/01/11 04:40:50;;;;;;;26.33;11.70;;;;;;;;;;5035171;28;20240;-37
2024/01/11 04:43:23;;;;;;;22.50;10.90;;;;;;;;;;5039714;28;20213;-34
2024/01/11 04:45:53;;;;;;;24.07;12.20;;;;;;;;;;5035141;28;20257;-32
2024/01/11 04:48:24;;;;;;;28.60;13.30;;;;;;;;;;5036971;28;20216;-34
2024/01/11 04:50:56;;;;;;;22.70;11.60;;;;;;;;;;5039086;28;20225;-31
2024/01/11 04:53:24;;;;;;;27.90;13.03;;;;;;;;;;5040014;28;20309;-33
2024/01/11 04:58:39;;;;;;;25.10;12.50;;;;;;;;;;5698461;22;20233;-27
2024/01/11 05:01:10;;;;;;;26.03;12.73;;;;;;;;;;5041186;28;20306;-26
2024/01/11 05:06:07;;;;;;;29.33;13.93;;;;;;;;;;5020883;28;20235;-39
2024/01/11 05:08:40;;;;;;;26.17;12.73;;;;;;;;;;5021233;28;20217;-40
2024/01/11 05:11:17;;;;;;;25.70;12.03;;;;;;;;;;5020193;28;20310;-36
2024/01/11 05:13:52;;;;;;;25.43;13.27;;;;;;;;;;5029068;28;20566;-36
2024/01/11 05:16:22;;;;;;;28.30;12.90;;;;;;;;;;5016975;28;20256;-36
2024/01/11 05:18:51;;;;;;;28.10;13.17;;;;;;;;;;5016796;28;20226;-37
2024/01/11 05:21:27;;;;;;;27.87;13.03;;;;;;;;;;5014768;28;20199;-36
2024/01/11 05:23:59;;;;;;;22.93;12.80;;;;;;;;;;5031391;28;20281;-34
2024/01/11 05:26:31;;;;;;;25.67;11.20;;;;;;;;;;5032587;28;20230;-34
2024/01/11 05:29:09;;;;;;;26.20;12.33;;;;;;;;;;5022855;28;20256;-35
2024/01/11 05:31:37;;;;;;;22.40;11.63;;;;;;;;;;5024151;28;20235;-32
2024/01/11 05:34:05;;;;;;;22.70;11.67;;;;;;;;;;5013166;28;20211;-35
2024/01/11 05:36:35;;;;;;;25.60;12.97;;;;;;;;;;5016817;28;20216;-39
2024/01/11 05:39:09;;;;;;;30.70;14.93;;;;;;;;;;5012305;28;20318;-34
2024/01/11 05:41:38;;;;;;;26.97;13.63;;;;;;;;;;5020713;28;20207;-36
2024/01/11 05:44:09;;;;;;;22.67;11.80;;;;;;;;;;5020224;28;20210;-34
2024/01/11 05:46:42;;;;;;;23.57;11.37;;;;;;;;;;5029457;28;20210;-37
2024/01/11 05:49:15;;;;;;;25.33;12.73;;;;;;;;;;5023550;28;20229;-36
2024/01/11 05:51:47;;;;;;;26.23;13.23;;;;;;;;;;5031707;28;20210;-40
2024/01/11 05:54:15;;;;;;;39.53;28.80;;;;;;;;;;5031971;28;20219;-33
2024/01/11 05:56:49;;;;;;;44.53;27.30;;;;;;;;;;5023395;28;20207;-35
2024/01/11 05:59:19;;;;;;;54.83;45.60;;;;;;;;;;5028432;28;20679;-35
2024/01/11 06:01:51;;;;;;;54.40;42.37;;;;;;;;;;5018876;28;20214;-37
2024/01/11 06:04:22;;;;;;;42.23;30.97;;;;;;;;;;5015258;28;20336;-33
2024/01/11 06:06:57;;;;;;;37.53;23.67;;;;;;;;;;5020195;28;20594;-34
2024/01/11 06:09:27;;;;;;;36.20;20.97;;;;;;;;;;5019920;28;20694;-38
2024/01/11 06:12:02;;;;;;;31.40;16.77;;;;;;;;;;5020773;28;20213;-33
2024/01/11 06:14:40;;;;;;;32.67;17.70;;;;;;;;;;5018875;28;20226;-36
2024/01/11 06:17:18;;;;;;;34.80;17.20;;;;;;;;;;5024364;28;20202;-34
2024/01/11 06:19:47;;;;;;;36.20;17.10;;;;;;;;;;5027219;28;20244;-33
2024/01/11 06:22:20;;;;;;;34.13;19.37;;;;;;;;;;5022901;28;20208;-35
2024/01/11 06:24:59;;;;;;;35.40;20.43;;;;;;;;;;5020744;28;20272;-37
2024/01/11 06:27:34;;;;;;;35.63;18.07;;;;;;;;;;5016285;28;20199;-37
2024/01/11 06:30:07;;;;;;;32.77;19.97;;;;;;;;;;5009554;28;20201;-35
2024/01/11 06:32:40;;;;;;;35.80;19.77;;;;;;;;;;5014969;28;20299;-34
2024/01/11 06:35:13;;;;;;;31.83;18.87;;;;;;;;;;5020986;28;20220;-32
2024/01/11 06:37:44;;;;;;;33.93;18.60;;;;;;;;;;5027240;28;20202;-31
2024/01/11 06:40:17;;;;;;;34.43;18.63;;;;;;;;;;5019737;28;20216;-35
2024/01/11 06:42:50;;;;;;;34.93;17.70;;;;;;;;;;5011016;28;20206;-37
2024/01/11 06:45:29;;;;;;;34.87;17.27;;;;;;;;;;5017672;28;20603;-31
2024/01/11 06:48:03;;;;;;;38.33;18.33;;;;;;;;;;5022887;28;20661;-35
2024/01/11 06:50:34;;;;;;;31.33;16.67;;;;;;;;;;5023256;28;20202;-34
2024/01/11 06:53:09;;;;;;;31.53;15.50;;;;;;;;;;5014171;28;20554;-34
2024/01/11 06:55:49;;;;;;;28.13;16.37;;;;;;;;;;5023185;28;20242;-37
2024/01/11 06:58:26;;;;;;;32.90;16.30;;;;;;;;;;5024150;28;20213;-34
2024/01/11 07:01:02;;;;;;;37.13;16.43;;;;;;;;;;5022552;28;20253;-35
2024/01/11 07:03:40;;;;;;;30.63;15.63;;;;;;;;;;5019999;28;20220;-34
2024/01/11 07:06:10;;;;;;;28.27;14.90;;;;;;;;;;5026378;28;20221;-35
2024/01/11 07:08:47;;;;;;;33.13;15.83;;;;;;;;;;5022818;28;20194;-38
2024/01/11 07:11:27;;;;;;;27.43;14.13;;;;;;;;;;5027656;28;20225;-32
2024/01/11 07:13:59;;;;;;;27.13;15.27;;;;;;;;;;5026532;28;20202;-34
2024/01/11 07:16:35;;;;;;;33.40;14.60;;;;;;;;;;5022738;28;20290;-35
2024/01/11 07:19:08;;;;;;;24.47;13.13;;;;;;;;;;5031866;28;20233;-35
2024/01/11 07:21:38;;;;;;;27.67;15.13;;;;;;;;;;5021710;28;20212;-37
2024/01/11 07:24:11;;;;;;;26.97;15.07;;;;;;;;;;5025662;28;20211;-36
2024/01/11 07:26:42;;;;;;;31.47;14.07;;;;;;;;;;5421526;22;20205;-32
2024/01/11 07:29:11;;;;;;;28.27;13.27;;;;;;;;;;5029490;28;20564;-34
2024/01/11 07:31:42;;;;;;;27.47;14.10;;;;;;;;;;5030682;28;20199;-35
2024/01/11 07:34:11;;;;;;;29.60;14.37;;;;;;;;;;5026995;28;20538;-34
2024/01/11 07:36:42;;;;;;;27.60;15.07;;;;;;;;;;5030451;28;20206;-35
2024/01/11 07:39:24;;;;;;;28.43;14.93;;;;;;;;;;5478551;22;20332;-37
2024/01/11 07:41:52;;;;;;;21.90;11.87;;;;;;;;;;5065603;28;20208;-34
2024/01/11 07:44:20;;;;;;;26.37;14.30;;;;;;;;;;5063824;28;20236;-36
2024/01/11 07:46:52;;;;;;;26.53;13.53;;;;;;;;;;5071502;28;20205;-35
2024/01/11 07:49:23;;;;;;;26.47;14.20;;;;;;;;;;5064518;28;20198;-35
2024/01/11 07:52:02;;;;;;;32.50;15.00;;;;;;;;;;5064182;28;20288;-32
2024/01/11 07:54:31;;;;;;;25.90;13.73;;;;;;;;;;5059166;28;20251;-36
2024/01/11 07:57:04;;;;;;;31.33;14.80;;;;;;;;;;5062260;28;20226;-37
2024/01/11 07:59:35;;;;;;;29.93;14.40;;;;;;;;;;5054917;28;20229;-37
2024/01/11 08:02:12;;;;;;;32.27;15.10;;;;;;;;;;5062397;28;20213;-36
2024/01/11 08:04:40;;;;;;;30.83;14.43;;;;;;;;;;5056224;28;20222;-33
2024/01/11 08:07:08;;;;;;;26.50;13.47;;;;;;;;;;5054369;28;20201;-34
2024/01/11 08:09:44;;;;;;;27.17;14.47;;;;;;;;;;5060950;28;20308;-37
2024/01/11 08:14:53;;;;;;;29.10;14.83;;;;;;;;;;5730160;22;20241;-34
2024/01/11 08:17:24;;;;;;;28.13;15.07;;;;;;;;;;5053344;28;20202;-36
2024/01/11 08:19:56;;;;;;;33.07;16.10;;;;;;;;;;5046753;28;20253;-35
2024/01/11 08:22:28;;;;;;;26.27;14.77;;;;;;;;;;5040072;28;20229;-38
2024/01/11 08:25:00;;;;;;;30.57;14.90;;;;;;;;;;5034989;28;20238;-37
2024/01/11 08:27:29;;;;;;;30.80;17.30;;;;;;;;;;5040832;28;20225;-35
2024/01/11 08:30:00;;;;;;;29.83;14.07;;;;;;;;;;5047221;28;20214;-36
2024/01/11 08:32:41;;;;;;;28.60;15.43;;;;;;;;;;5022925;28;20245;-35
2024/01/11 08:35:19;;;;;;;36.97;17.03;;;;;;;;;;5023696;28;20221;-32
2024/01/11 08:37:47;;;;;;;33.87;15.73;;;;;;;;;;5049254;28;20213;-35
2024/01/11 08:40:21;;;;;;;29.57;15.93;;;;;;;;;;5045141;28;20584;-35
2024/01/11 08:42:49;;;;;;;32.50;16.97;;;;;;;;;;5040616;28;20209;-32
2024/01/11 08:45:20;;;;;;;32.07;16.60;;;;;;;;;;5339323;22;20706;-26
2024/01/11 08:47:58;;;;;;;32.90;16.73;;;;;;;;;;5061248;28;20227;-26
2024/01/11 08:50:27;;;;;;;31.97;17.40;;;;;;;;;;5057791;28;20200;-25
2024/01/11 08:53:00;;;;;;;33.43;17.77;;;;;;;;;;5052537;28;20213;-25
2024/01/11 08:55:29;;;;;;;39.70;20.90;;;;;;;;;;5061149;28;20226;-27
2024/01/11 08:58:00;;;;;;;35.27;19.27;;;;;;;;;;5055339;28;20218;-25
2024/01/11 09:00:34;;;;;;;34.33;18.33;;;;;;;;;;5058259;28;20233;-25
2024/01/11 09:03:05;;;;;;;33.37;19.73;;;;;;;;;;5063389;28;20575;-27
2024/01/11 09:05:36;;;;;;;33.77;18.83;;;;;;;;;;5063096;28;20221;-26
2024/01/11 09:08:06;;;;;;;36.97;19.90;;;;;;;;;;5072023;28;20254;-25
2024/01/11 09:10:36;;;;;;;37.47;18.17;;;;;;;;;;5071816;28;20332;-27
2024/01/11 09:13:07;;;;;;;35.83;18.03;;;;;;;;;;5063443;28;20551;-25
2024/01/11 09:20:50;;;;;;;29.47;16.93;;;;;;;;;;5133488;22;20230;-31
2024/01/11 09:23:23;;;;;;;36.43;18.60;;;;;;;;;;5024667;28;20203;-37
2024/01/11 09:25:55;;;;;;;30.20;17.27;;;;;;;;;;5024516;28;20226;-35
2024/01/11 09:28:24;;;;;;;31.57;18.57;;;;;;;;;;5025276;28;20198;-31
2024/01/11 09:30:59;;;;;;;39.77;20.13;;;;;;;;;;5024357;28;20683;-34
2024/01/11 09:33:28;;;;;;;34.83;17.60;;;;;;;;;;5017804;28;20294;-36
2024/01/11 09:35:58;;;;;;;35.83;18.00;;;;;;;;;;5031955;28;20252;-32
2024/01/11 09:38:29;;;;;;;37.73;19.20;;;;;;;;;;5025742;28;20210;-33
2024/01/11 09:41:02;;;;;;;30.53;18.60;;;;;;;;;;5023112;28;20234;-35
2024/01/11 09:43:30;;;;;;;35.67;18.60;;;;;;;;;;5030252;28;20214;-34
2024/01/11 09:46:00;;;;;;;30.23;17.57;;;;;;;;;;5023035;28;20262;-37
2024/01/11 09:48:32;;;;;;;31.67;17.83;;;;;;;;;;5022319;28;20202;-37
2024/01/11 09:51:02;;;;;;;34.10;18.53;;;;;;;;;;5024425;28;20203;-33
2024/01/11 09:53:31;;;;;;;36.57;18.60;;;;;;;;;;5018458;28;20218;-33
2024/01/11 09:56:02;;;;;;;37.60;18.33;;;;;;;;;;5021231;28;20281;-33
2024/01/11 09:58:38;;;;;;;30.73;18.37;;;;;;;;;;5019675;28;20209;-33
2024/01/11 10:01:12;;;;;;;30.63;18.27;;;;;;;;;;5028089;28;20303;-36
2024/01/11 10:03:45;;;;;;;35.60;17.57;;;;;;;;;;5025800;28;20237;-34
2024/01/11 10:06:17;;;;;;;31.40;18.23;;;;;;;;;;5026783;28;20226;-34
2024/01/11 10:08:46;;;;;;;35.60;19.17;;;;;;;;;;5016663;28;20601;-34
2024/01/11 10:11:16;;;;;;;33.73;17.63;;;;;;;;;;5023436;28;20202;-32
2024/01/11 10:13:44;;;;;;;32.73;17.70;;;;;;;;;;5030002;28;20204;-34
2024/01/11 10:16:15;;;;;;;33.10;18.30;;;;;;;;;;5032080;28;20349;-33
2024/01/11 10:18:44;;;;;;;34.90;19.30;;;;;;;;;;5031476;28;20222;-39
2024/01/11 10:21:12;;;;;;;35.43;17.73;;;;;;;;;;5032579;28;20245;-35
2024/01/11 10:23:42;;;;;;;36.13;18.67;;;;;;;;;;5023391;28;20198;-39
2024/01/11 10:26:10;;;;;;;33.63;18.27;;;;;;;;;;5020384;28;20235;-34
2024/01/11 10:28:38;;;;;;;30.70;17.70;;;;;;;;;;5028909;28;20195;-34
2024/01/11 10:31:06;;;;;;;36.33;19.17;;;;;;;;;;5020874;28;20584;-32
2024/01/11 10:33:35;;;;;;;37.67;18.27;;;;;;;;;;5018694;28;20276;-35
2024/01/11 10:36:03;;;;;;;34.10;18.57;;;;;;;;;;5039724;28;20257;-33
2024/01/11 10:38:32;;;;;;;28.27;17.60;;;;;;;;;;5016011;28;20199;-33
2024/01/11 10:41:02;;;;;;;35.47;19.47;;;;;;;;;;5032107;28;20333;-33
2024/01/11 10:43:30;;;;;;;31.30;17.57;;;;;;;;;;5028850;28;20207;-35
2024/01/11 10:45:58;;;;;;;40.03;19.80;;;;;;;;;;5033944;28;20684;-37
2024/01/11 10:48:26;;;;;;;36.67;20.87;;;;;;;;;;5023423;28;20241;-32
2024/01/11 10:50:56;;;;;;;32.63;17.80;;;;;;;;;;5032204;28;20198;-32
2024/01/11 10:53:27;;;;;;;35.80;18.77;;;;;;;;;;5022460;28;20207;-33
2024/01/11 10:55:55;;;;;;;30.23;17.13;;;;;;;;;;5030077;28;20315;-34
2024/01/11 10:58:25;;;;;;;29.00;15.93;;;;;;;;;;5021324;28;20203;-33
2024/01/11 11:00:55;;;;;;;31.50;15.20;;;;;;;;;;5025411;28;20780;-32
2024/01/11 11:03:23;;;;;;;35.53;18.27;;;;;;;;;;5022350;28;20226;-30
2024/01/11 11:05:51;;;;;;;33.23;17.87;;;;;;;;;;5023598;28;20291;-34
2024/01/11 11:08:19;;;;;;;36.27;19.03;;;;;;;;;;5018407;28;20203;-31
2024/01/11 11:10:47;;;;;;;34.53;18.33;;;;;;;;;;5026717;28;20207;-35
2024/01/11 11:13:16;;;;;;;33.83;18.30;;;;;;;;;;5022755;28;20642;-38
2024/01/11 11:15:48;;;;;;;30.90;18.50;;;;;;;;;;5033814;28;20231;-36
2024/01/11 11:18:16;;;;;;;33.57;18.83;;;;;;;;;;5015671;28;20226;-36
2024/01/11 11:20:43;;;;;;;33.83;17.67;;;;;;;;;;5028267;28;20228;-35
2024/01/11 11:23:12;;;;;;;39.97;20.73;;;;;;;;;;5023558;28;20223;-37
2024/01/11 11:25:42;;;;;;;35.83;19.07;;;;;;;;;;5020315;28;20222;-36
2024/01/11 11:28:10;;;;;;;39.97;21.40;;;;;;;;;;5023404;28;20210;-35
2024/01/11 11:30:39;;;;;;;36.63;20.00;;;;;;;;;;5028493;28;20286;-36
2024/01/11 11:33:12;;;;;;;37.30;20.10;;;;;;;;;;5014010;28;20210;-34
2024/01/11 11:40:45;;;;;;;35.50;18.23;;;;;;;;;;5064405;28;20233;-28
2024/01/11 11:43:14;;;;;;;34.77;20.70;;;;;;;;;;5059798;28;20296;-26
2024/01/11 11:45:44;;;;;;;38.13;19.60;;;;;;;;;;5053947;28;20237;-26
2024/01/11 11:48:51;;;;;;;36.93;19.57;;;;;;;;;;5036057;28;20678;-27
2024/01/11 11:51:25;;;;;;;34.03;18.83;;;;;;;;;;4969846;28;20208;-27
2024/01/11 11:53:54;;;;;;;37.33;20.07;;;;;;;;;;4957909;28;20205;-28
2024/01/11 11:56:25;;;;;;;37.63;21.03;;;;;;;;;;5005144;28;20198;-28
2024/01/11 11:58:54;;;;;;;39.07;20.27;;;;;;;;;;5047432;28;20214;-28
2024/01/11 12:01:23;;;;;;;35.20;20.00;;;;;;;;;;5045010;28;20225;-25
2024/01/11 12:03:54;;;;;;;34.90;20.17;;;;;;;;;;5041530;28;20202;-27
2024/01/11 12:06:27;;;;;;;32.90;19.17;;;;;;;;;;5049141;28;20599;-27
2024/01/11 12:08:56;;;;;;;37.50;20.10;;;;;;;;;;5037319;28;20205;-28
2024/01/11 12:16:28;;;;;;;36.33;18.77;;;;;;;;;;5067729;28;20221;-27
2024/01/11 12:18:56;;;;;;;35.17;20.60;;;;;;;;;;5056050;28;20209;-29
2024/01/11 12:21:35;;;;;;;34.57;20.20;;;;;;;;;;5061361;28;20214;-27
2024/01/11 12:24:09;;;;;;;31.60;18.63;;;;;;;;;;5052697;28;20202;-26
2024/01/11 12:26:37;;;;;;;36.33;19.63;;;;;;;;;;5052579;28;20288;-28
2024/01/11 12:29:06;;;;;;;39.53;19.17;;;;;;;;;;5061726;28;20201;-28
2024/01/11 12:31:38;;;;;;;35.07;19.83;;;;;;;;;;5065673;28;20225;-28
2024/01/11 12:34:05;;;;;;;39.43;21.73;;;;;;;;;;5062971;28;20203;-28
2024/01/11 12:36:35;;;;;;;35.37;18.10;;;;;;;;;;5057817;28;20204;-28
2024/01/11 12:39:04;;;;;;;37.80;20.57;;;;;;;;;;5061455;28;20217;-27
2024/01/11 12:41:31;;;;;;;36.23;19.47;;;;;;;;;;5056875;28;20228;-27
2024/01/11 12:44:00;;;;;;;34.53;19.77;;;;;;;;;;5058260;28;20289;-28
2024/01/11 12:46:30;;;;;;;32.83;18.63;;;;;;;;;;5071827;28;20212;-28
2024/01/11 12:49:01;;;;;;;35.17;19.17;;;;;;;;;;5059204;28;20208;-35
2024/01/11 12:51:31;;;;;;;35.07;20.63;;;;;;;;;;5053780;28;20285;-28
2024/01/11 12:54:01;;;;;;;35.97;20.73;;;;;;;;;;5068055;28;20209;-26
2024/01/11 12:56:32;;;;;;;38.70;21.37;;;;;;;;;;5061603;28;20607;-27
2024/01/11 12:59:14;;;;;;;40.07;21.10;;;;;;;;;;5067698;28;20206;-27
2024/01/11 13:01:47;;;;;;;39.17;22.07;;;;;;;;;;5052483;28;20306;-27
2024/01/11 13:04:19;;;;;;;41.13;20.60;;;;;;;;;;5051872;28;20221;-28
2024/01/11 13:06:51;;;;;;;38.43;22.63;;;;;;;;;;5057028;28;20270;-26
2024/01/11 13:09:20;;;;;;;38.77;21.30;;;;;;;;;;5061897;28;20348;-28
2024/01/11 13:11:48;;;;;;;36.23;21.70;;;;;;;;;;5067350;28;20230;-27
2024/01/11 13:14:19;;;;;;;37.47;21.47;;;;;;;;;;5053146;28;20272;-26
2024/01/11 13:16:46;;;;;;;36.03;22.40;;;;;;;;;;5052673;28;20202;-27
2024/01/11 13:19:19;;;;;;;42.73;19.90;;;;;;;;;;5065606;28;20235;-27
2024/01/11 13:21:47;;;;;;;36.73;21.47;;;;;;;;;;5053609;28;20580;-28
2024/01/11 13:24:16;;;;;;;33.63;18.57;;;;;;;;;;5059812;28;20288;-27
2024/01/11 13:26:55;;;;;;;37.43;20.80;;;;;;;;;;5065445;28;20201;-28
2024/01/11 13:34:45;;;;;;;36.63;18.10;;;;;;;;;;5053536;28;20590;-35
2024/01/11 13:37:21;;;;;;;35.93;21.07;;;;;;;;;;5043750;28;20209;-32
2024/01/11 13:39:50;;;;;;;42.67;22.60;;;;;;;;;;5051731;28;20208;-33
2024/01/11 13:42:22;;;;;;;42.33;22.40;;;;;;;;;;5047409;28;20298;-34
2024/01/11 13:44:50;;;;;;;38.13;22.03;;;;;;;;;;5048221;28;20225;-32
2024/01/11 13:47:18;;;;;;;46.57;23.37;;;;;;;;;;5051828;28;20210;-32
2024/01/11 13:49:46;;;;;;;40.03;20.53;;;;;;;;;;5042910;28;20237;-35
2024/01/11 13:52:15;;;;;;;41.80;21.87;;;;;;;;;;5049008;28;20210;-33
2024/01/11 13:54:44;;;;;;;43.40;23.93;;;;;;;;;;5051738;28;20240;-39
2024/01/11 13:57:12;;;;;;;37.87;20.63;;;;;;;;;;5051095;28;20229;-36
2024/01/11 13:59:43;;;;;;;35.43;21.77;;;;;;;;;;5047130;28;20210;-34
2024/01/11 14:02:12;;;;;;;42.93;22.37;;;;;;;;;;5040510;28;20676;-33
2024/01/11 14:04:45;;;;;;;40.30;21.40;;;;;;;;;;5040803;28;20276;-36
2024/01/11 14:07:13;;;;;;;44.03;23.00;;;;;;;;;;5049360;28;20726;-31
2024/01/11 14:09:43;;;;;;;42.67;22.97;;;;;;;;;;5055716;28;20605;-37
2024/01/11 14:12:15;;;;;;;42.80;23.40;;;;;;;;;;5055767;28;20204;-31
2024/01/11 14:17:40;;;;;;;44.93;22.43;;;;;;;;;;5065514;28;20300;-36
2024/01/11 14:20:12;;;;;;;37.90;21.73;;;;;;;;;;5062536;28;20209;-30
2024/01/11 14:22:41;;;;;;;42.53;21.17;;;;;;;;;;5067766;28;20259;-35
2024/01/11 14:25:10;;;;;;;37.37;21.10;;;;;;;;;;5064869;28;20488;-34
2024/01/11 14:27:42;;;;;;;37.53;19.87;;;;;;;;;;5038976;28;20213;-31
2024/01/11 14:30:11;;;;;;;38.00;19.67;;;;;;;;;;5036180;28;20207;-33
2024/01/11 14:32:45;;;;;;;37.90;20.87;;;;;;;;;;5039026;28;20222;-36
2024/01/11 14:35:13;;;;;;;36.50;21.20;;;;;;;;;;5038218;28;20266;-32
2024/01/11 14:37:42;;;;;;;39.23;20.93;;;;;;;;;;5053170;28;20205;-35
2024/01/11 14:40:12;;;;;;;38.73;20.43;;;;;;;;;;5039401;28;20238;-30
2024/01/11 14:42:41;;;;;;;33.43;19.50;;;;;;;;;;5037241;28;20233;-33
2024/01/11 14:45:09;;;;;;;35.87;19.60;;;;;;;;;;5041336;28;20228;-34
2024/01/11 14:47:38;;;;;;;36.20;19.73;;;;;;;;;;5046792;28;20202;-33
2024/01/11 14:50:10;;;;;;;36.97;20.03;;;;;;;;;;5049129;28;20205;-35
2024/01/11 14:52:41;;;;;;;39.57;21.80;;;;;;;;;;5046544;28;20230;-35
2024/01/11 14:55:09;;;;;;;36.57;20.30;;;;;;;;;;5047089;28;20245;-31
2024/01/11 14:57:39;;;;;;;35.13;19.93;;;;;;;;;;5042452;28;20206;-33
2024/01/11 15:00:10;;;;;;;38.20;19.43;;;;;;;;;;5048027;28;20292;-32
2024/01/11 15:02:40;;;;;;;37.30;19.37;;;;;;;;;;5038742;28;20228;-32
2024/01/11 15:05:28;;;;;;;35.67;19.83;;;;;;;;;;5042949;28;20317;-32
2024/01/11 15:15:30;;;;;;;35.63;19.20;;;;;;;;;;5054436;28;20241;-34
2024/01/11 15:20:36;;;;;;;32.23;19.67;;;;;;;;;;5031604;28;20218;-35
2024/01/11 15:23:09;;;;;;;33.40;17.83;;;;;;;;;;5034356;28;20333;-37
2024/01/11 15:25:41;;;;;;;30.90;18.60;;;;;;;;;;5034657;28;20236;-36
2024/01/11 15:28:12;;;;;;;38.33;20.03;;;;;;;;;;5031815;28;20206;-32
2024/01/11 15:30:42;;;;;;;33.57;17.33;;;;;;;;;;5027775;28;20264;-33
2024/01/11 15:38:23;;;;;;;38.87;19.97;;;;;;;;;;5064495;28;20300;-28
2024/01/11 15:40:57;;;;;;;42.00;22.43;;;;;;;;;;5067734;28;20248;-26
2024/01/11 15:43:36;;;;;;;39.97;21.47;;;;;;;;;;5070435;28;20230;-26
2024/01/11 15:46:09;;;;;;;169.00;61.17;;;;;;;;;;5048470;28;20281;-27
2024/01/11 15:48:44;;;;;;;35.37;21.03;;;;;;;;;;5050249;28;20305;-25